TimeCDT,TemperatureF,Dew PointF,Humidity,Sea Level PressureIn,VisibilityMPH,Wind Direction,Wind SpeedMPH,Gust SpeedMPH,PrecipitationIn,Events,Conditions,WindDirDegrees,DateUTC
12:55 AM,56.1,47.3,72,29.72,10.0,ESE,10.4,-,N/A,,Clear,110,2012-10-16 05:55:00
1:55 AM,55.9,48.4,76,29.68,10.0,ESE,9.2,-,N/A,,Clear,110,2012-10-16 06:55:00
2:55 AM,55.9,49.1,78,29.64,10.0,SE,9.2,-,N/A,,Clear,130,2012-10-16 07:55:00
3:55 AM,48.0,45.5,91,29.61,10.0,SE,6.9,-,N/A,,Clear,140,2012-10-16 08:55:00
4:55 AM,50.7,47.5,89,29.59,10.0,SE,6.9,-,N/A,,Clear,130,2012-10-16 09:55:00
5:55 AM,48.6,46.0,91,29.58,10.0,East,5.8,-,N/A,,Clear,100,2012-10-16 10:55:00
6:55 AM,46.4,44.8,94,29.57,10.0,East,5.8,-,N/A,,Clear,100,2012-10-16 11:55:00
7:55 AM,48.6,46.6,93,29.57,10.0,Calm,Calm,-,N/A,,Clear,0,2012-10-16 12:55:00
8:55 AM,54.7,48.9,81,29.56,7.0,SSW,4.6,-,N/A,,Clear,210,2012-10-16 13:55:00
9:55 AM,59.7,49.3,68,29.56,7.0,West,9.2,-,N/A,,Clear,260,2012-10-16 14:55:00
10:55 AM,63.5,48.2,57,29.56,10.0,WNW,12.7,-,N/A,,Clear,290,2012-10-16 15:55:00
11:55 AM,67.5,47.5,49,29.54,10.0,West,10.4,-,N/A,,Clear,280,2012-10-16 16:55:00
12:55 PM,72.5,46.8,40,29.52,10.0,WNW,11.5,-,N/A,,Clear,300,2012-10-16 17:55:00
1:55 PM,75.7,45.9,35,29.49,10.0,NNW,9.2,-,N/A,,Clear,330,2012-10-16 18:55:00
2:55 PM,77.9,45.5,32,29.46,10.0,WSW,6.9,-,N/A,,Clear,240,2012-10-16 19:55:00
3:55 PM,79.0,44.2,29,29.46,10.0,West,8.1,-,N/A,,Clear,280,2012-10-16 20:55:00
4:55 PM,79.2,43.5,28,29.44,10.0,West,6.9,-,N/A,,Clear,260,2012-10-16 21:55:00
5:55 PM,77.2,43.9,31,29.43,10.0,WSW,6.9,-,N/A,,Clear,240,2012-10-16 22:55:00
6:55 PM,72.0,44.8,38,29.44,10.0,SW,4.6,-,N/A,,Clear,230,2012-10-16 23:55:00
7:55 PM,58.5,46.8,65,29.45,10.0,Calm,Calm,-,N/A,,Clear,0,2012-10-17 00:55:00
8:55 PM,53.8,47.5,79,29.44,10.0,South,3.5,-,N/A,,Clear,180,2012-10-17 01:55:00
9:55 PM,58.1,47.1,67,29.43,10.0,SSE,3.5,-,N/A,,Clear,160,2012-10-17 02:55:00
10:55 PM,59.5,48.4,67,29.41,10.0,Calm,Calm,-,N/A,,Clear,0,2012-10-17 03:55:00
11:55 PM,59.5,49.8,70,29.39,10.0,Calm,Calm,-,N/A,,Scattered Clouds,0,2012-10-17 04:55:00